createdAt,value
2018-09-17T00:01:53.655Z,94233.00
2018-09-17T00:04:21.732Z,94240.15
2018-09-17T00:06:50.154Z,94237.63
2018-09-17T00:09:18.178Z,94234.78
2018-09-17T00:11:46.269Z,94233.20
2018-09-17T00:14:15.624Z,94230.76
2018-09-17T00:16:43.605Z,94228.63
2018-09-17T00:19:11.584Z,94232.06
2018-09-17T00:21:39.595Z,94232.29
2018-09-17T00:24:07.678Z,94238.22
2018-09-17T00:26:35.719Z,94232.50
2018-09-17T00:29:03.868Z,94235.17
2018-09-17T00:31:31.925Z,94240.42
2018-09-17T00:33:59.990Z,94239.73
2018-09-17T00:36:28.204Z,94236.27
2018-09-17T00:38:56.399Z,94241.95
2018-09-17T00:41:24.459Z,94240.37
2018-09-17T00:43:52.439Z,94242.22
2018-09-17T00:46:20.469Z,94239.14
2018-09-17T00:48:48.634Z,94243.05
2018-09-17T00:51:17.352Z,94238.63
2018-09-17T00:53:45.338Z,94244.09
2018-09-17T00:56:13.325Z,94237.40
2018-09-17T00:58:41.416Z,94237.04
2018-09-17T01:01:09.521Z,94234.80
2018-09-17T01:03:37.487Z,94237.07
2018-09-17T01:06:05.492Z,94241.36
2018-09-17T01:08:33.580Z,94246.98
2018-09-17T01:11:01.552Z,94242.41
2018-09-17T01:13:29.778Z,94242.48
2018-09-17T01:15:58.079Z,94242.74
2018-09-17T01:18:26.196Z,94241.23
2018-09-17T01:20:54.179Z,94238.65
2018-09-17T01:23:22.147Z,94237.34
2018-09-17T01:25:50.178Z,94237.42
2018-09-17T01:28:18.250Z,94237.08
2018-09-17T01:30:46.225Z,94235.37
2018-09-17T01:33:14.188Z,94233.30
2018-09-17T01:35:42.186Z,94239.54
2018-09-17T01:38:10.259Z,94236.38
2018-09-17T01:40:38.276Z,94234.48
2018-09-17T01:43:06.562Z,94235.52
2018-09-17T01:45:34.593Z,94238.53
2018-09-17T01:48:02.616Z,94227.44
2018-09-17T01:50:30.795Z,94229.97
2018-09-17T01:52:58.834Z,94227.97
2018-09-17T01:55:27.004Z,94228.17
2018-09-17T01:57:55.346Z,94231.20
2018-09-17T02:00:23.456Z,94232.47
2018-09-17T02:02:51.473Z,94228.80
2018-09-17T02:05:19.542Z,94223.45
2018-09-17T02:07:47.622Z,94227.13
2018-09-17T02:10:15.637Z,94223.59
2018-09-17T02:12:43.621Z,94224.14
2018-09-17T02:15:11.680Z,94217.70
2018-09-17T02:17:39.782Z,94216.55
2018-09-17T02:20:07.767Z,94220.16
2018-09-17T02:22:35.865Z,94221.93
2018-09-17T02:25:04.010Z,94219.48
2018-09-17T02:27:32.267Z,94214.82
2018-09-17T02:30:00.382Z,94211.69
2018-09-17T02:32:28.486Z,94218.58
2018-09-17T02:34:56.480Z,94218.11
2018-09-17T02:37:24.680Z,94222.70
2018-09-17T02:39:52.707Z,94221.80
2018-09-17T02:42:20.701Z,94220.85
2018-09-17T02:44:48.821Z,94218.21
2018-09-17T02:47:16.887Z,94223.08
2018-09-17T02:49:44.913Z,94222.94
2018-09-17T02:52:12.947Z,94225.69
2018-09-17T02:54:40.966Z,94229.51
2018-09-17T02:57:09.145Z,94227.45
2018-09-17T02:59:37.254Z,94226.85
2018-09-17T03:02:05.427Z,94226.45
2018-09-17T03:04:33.422Z,94224.47
2018-09-17T03:07:01.476Z,94225.33
2018-09-17T03:09:29.457Z,94222.48
2018-09-17T03:11:57.575Z,94226.53
2018-09-17T03:14:28.279Z,94229.89
2018-09-17T03:17:11.684Z,94230.52
2018-09-17T03:19:40.657Z,94228.89
2018-09-17T03:22:09.075Z,94230.52
2018-09-17T03:24:37.324Z,94230.87
2018-09-17T03:27:05.661Z,94234.02
2018-09-17T03:29:33.687Z,94236.94
2018-09-17T03:32:01.734Z,94240.98
2018-09-17T03:34:29.745Z,94251.36
2018-09-17T03:36:57.906Z,94257.86
2018-09-17T03:39:26.065Z,94257.17
2018-09-17T03:41:54.121Z,94258.62
2018-09-17T03:44:22.167Z,94259.45
2018-09-17T03:46:50.231Z,94255.85
2018-09-17T03:49:18.484Z,94261.90
2018-09-17T03:51:46.572Z,94255.88
2018-09-17T03:54:14.855Z,94262.90
2018-09-17T03:59:22.982Z,94269.02
2018-09-17T04:01:51.045Z,94268.02
2018-09-17T04:04:19.066Z,94264.50
2018-09-17T04:06:47.138Z,94266.47
2018-09-17T04:09:15.315Z,94269.53
2018-09-17T04:11:43.384Z,94270.08
2018-09-17T04:14:11.428Z,94268.08
2018-09-17T04:16:39.482Z,94262.19
2018-09-17T04:19:07.633Z,94267.12
2018-09-17T04:21:35.772Z,94269.25
2018-09-17T04:24:03.881Z,94271.25
2018-09-17T04:26:31.964Z,94275.30
2018-09-17T04:29:00.214Z,94271.02
2018-09-17T04:31:28.360Z,94270.71
2018-09-17T04:33:56.472Z,94271.34
2018-09-17T04:36:24.596Z,94269.74
2018-09-17T04:38:53.038Z,94273.10
2018-09-17T04:41:21.283Z,94274.03
2018-09-17T04:43:49.430Z,94276.58
2018-09-17T04:46:17.438Z,94281.54
2018-09-17T04:48:45.606Z,94281.79
2018-09-17T04:51:13.739Z,94285.70
2018-09-17T04:53:41.764Z,94293.42
2018-09-17T04:56:10.213Z,94293.58
2018-09-17T04:58:39.046Z,94299.02
2018-09-17T05:01:07.654Z,94298.73
2018-09-17T05:03:36.196Z,94301.34
2018-09-17T05:06:05.647Z,94297.17
2018-09-17T05:08:34.279Z,94296.44
2018-09-17T05:11:03.587Z,94290.97
2018-09-17T05:13:33.008Z,94288.69
2018-09-17T05:16:02.077Z,94288.38
2018-09-17T05:18:30.261Z,94292.29
2018-09-17T05:20:58.496Z,94285.95
2018-09-17T05:23:26.669Z,94288.70
2018-09-17T05:25:54.857Z,94285.53
2018-09-17T05:28:23.155Z,94284.75
2018-09-17T05:30:51.414Z,94289.42
2018-09-17T05:33:19.659Z,94288.38
2018-09-17T05:35:47.867Z,94288.28
2018-09-17T05:38:16.078Z,94292.52
2018-09-17T05:40:44.705Z,94290.59
2018-09-17T05:43:12.908Z,94294.73
2018-09-17T05:45:41.056Z,94295.55
2018-09-17T05:48:09.502Z,94296.04
2018-09-17T05:50:37.791Z,94298.73
2018-09-17T05:53:06.314Z,94294.60
2018-09-17T05:55:34.585Z,94300.95
2018-09-17T05:58:02.812Z,94298.41
2018-09-17T06:00:30.966Z,94298.39
2018-09-17T06:02:59.617Z,94294.00
2018-09-17T06:05:28.140Z,94301.75
2018-09-17T06:07:56.458Z,94303.18
2018-09-17T06:10:24.716Z,94301.16
2018-09-17T06:12:53.149Z,94303.05
2018-09-17T06:15:21.283Z,94308.73
2018-09-17T06:17:49.701Z,94313.06
2018-09-17T06:20:18.065Z,94303.55
2018-09-17T06:22:46.213Z,94300.41
2018-09-17T06:25:14.413Z,94300.79
2018-09-17T06:27:42.758Z,94301.47
2018-09-17T06:30:11.115Z,94310.21
2018-09-17T06:32:39.507Z,94305.70
2018-09-17T06:35:07.705Z,94312.98
2018-09-17T06:37:35.969Z,94306.27
2018-09-17T06:40:04.205Z,94301.88
2018-09-17T06:42:32.340Z,94308.38
2018-09-17T06:45:00.700Z,94304.95
2018-09-17T06:47:29.017Z,94304.70
2018-09-17T06:49:57.201Z,94307.79
2018-09-17T06:52:25.355Z,94310.08
2018-09-17T06:54:53.595Z,94309.34
2018-09-17T06:57:21.737Z,94310.69
2018-09-17T06:59:49.773Z,94312.23
2018-09-17T07:02:17.912Z,94311.89
2018-09-17T07:04:46.064Z,94318.06
2018-09-17T07:07:14.299Z,94316.06
2018-09-17T07:09:42.513Z,94321.45
2018-09-17T07:12:10.637Z,94316.84
2018-09-17T07:14:39.006Z,94322.11
2018-09-17T07:17:07.307Z,94319.78
2018-09-17T07:19:35.565Z,94324.82
2018-09-17T07:22:03.736Z,94321.62
2018-09-17T07:24:31.908Z,94321.34
2018-09-17T07:27:00.531Z,94312.58
2018-09-17T07:29:28.814Z,94318.17
2018-09-17T07:31:57.106Z,94308.81
2018-09-17T07:34:25.423Z,94318.20
2018-09-17T07:36:53.653Z,94315.44
2018-09-17T07:39:22.142Z,94317.22
2018-09-17T07:41:51.548Z,94310.68
2018-09-17T07:44:20.387Z,94311.88
2018-09-17T07:46:48.858Z,94318.97
2018-09-17T07:49:17.258Z,94314.59
2018-09-17T07:51:45.329Z,94313.22
2018-09-17T07:54:13.754Z,94313.44
2018-09-17T07:56:41.964Z,94311.61
2018-09-17T07:59:11.497Z,94308.00
2018-09-17T08:01:39.640Z,94310.96
2018-09-17T08:04:07.729Z,94311.34
2018-09-17T08:06:36.136Z,94307.30
2018-09-17T08:09:08.930Z,94303.39
2018-09-17T08:11:37.163Z,94305.13
2018-09-17T08:14:05.594Z,94293.18
2018-09-17T08:16:33.840Z,94294.63
2018-09-17T08:19:02.043Z,94292.03
2018-09-17T08:21:30.152Z,94289.09
2018-09-17T08:23:58.419Z,94286.59
2018-09-17T08:26:26.545Z,94286.88
2018-09-17T08:28:54.680Z,94282.73
2018-09-17T08:31:23.113Z,94276.87
2018-09-17T08:33:51.329Z,94276.25
2018-09-17T08:36:19.565Z,94277.87
2018-09-17T08:38:47.719Z,94278.67
2018-09-17T08:41:15.861Z,94270.02
2018-09-17T08:43:44.012Z,94277.37
2018-09-17T08:46:12.143Z,94269.20
2018-09-17T08:48:40.268Z,94269.48
2018-09-17T08:51:08.496Z,94263.47
2018-09-17T08:53:36.765Z,94269.88
2018-09-17T08:57:14.847Z,94259.75
2018-09-17T08:59:46.921Z,94259.94
2018-09-17T09:02:15.302Z,94257.76
2018-09-17T09:04:49.928Z,94262.98
2018-09-17T09:07:23.854Z,94257.81
2018-09-17T09:09:55.401Z,94251.44
2018-09-17T09:12:30.941Z,94242.52
2018-09-17T09:15:04.841Z,94242.23
2018-09-17T09:17:33.036Z,94243.00
2018-09-17T09:20:01.349Z,94248.31
2018-09-17T09:22:29.484Z,94238.29
2018-09-17T09:24:57.776Z,94238.76
2018-09-17T09:27:25.951Z,94231.35
2018-09-17T09:29:54.100Z,94229.30
2018-09-17T09:32:22.380Z,94224.08
2018-09-17T09:34:51.039Z,94219.77
2018-09-17T09:37:19.421Z,94223.44
2018-09-17T09:39:48.115Z,94222.23
2018-09-17T09:42:16.298Z,94221.20
2018-09-17T09:44:50.012Z,94213.77
2018-09-17T09:47:18.110Z,94216.13
2018-09-17T09:49:51.859Z,94215.39
2018-09-17T10:30:41.801Z,94183.86
2018-09-17T10:33:10.039Z,94186.56
2018-09-17T10:35:38.201Z,94187.33
2018-09-17T10:38:06.328Z,94182.53
2018-09-17T10:40:34.404Z,94185.22
2018-09-17T10:43:02.740Z,94183.30
2018-09-17T10:45:31.538Z,94184.20
2018-09-17T10:48:02.481Z,94178.73
2018-09-17T10:50:31.235Z,94177.25
2018-09-17T10:52:59.866Z,94171.88
2018-09-17T10:55:28.334Z,94170.44
2018-09-17T10:57:56.783Z,94166.70
2018-09-17T11:00:25.449Z,94171.81
2018-09-17T11:02:53.997Z,94167.56
2018-09-17T11:05:22.735Z,94163.58
2018-09-17T11:07:51.308Z,94163.63
2018-09-17T11:10:19.986Z,94164.54
2018-09-17T11:12:48.759Z,94153.34
2018-09-17T11:20:48.436Z,94145.36
2018-09-17T11:23:16.985Z,94148.88
2018-09-17T11:25:45.630Z,94150.38
2018-09-17T11:28:14.258Z,94145.83
2018-09-17T11:30:43.371Z,94140.83
2018-09-17T11:33:13.958Z,94142.38
2018-09-17T11:35:43.175Z,94147.81
2018-09-17T11:38:12.183Z,94146.90
2018-09-17T11:40:40.875Z,94140.17
2018-09-17T11:43:10.550Z,94141.95
2018-09-17T11:45:39.396Z,94135.09
2018-09-17T11:48:08.435Z,94144.16
2018-09-17T11:50:37.656Z,94128.67
2018-09-17T11:53:06.581Z,94131.23
2018-09-17T11:55:35.832Z,94129.22
2018-09-17T11:58:05.401Z,94125.80
2018-09-17T12:00:39.831Z,94114.56
2018-09-17T12:03:14.030Z,94116.77
2018-09-17T12:05:49.148Z,94119.91
2018-09-17T12:08:19.201Z,94115.88
2018-09-17T12:10:48.114Z,94111.40
2018-09-17T12:13:18.221Z,94107.80
2018-09-17T12:15:46.851Z,94107.76
2018-09-17T12:18:15.769Z,94103.94
2018-09-17T12:20:44.695Z,94102.52
2018-09-17T12:23:14.052Z,94101.73
2018-09-17T12:25:42.737Z,94104.93
2018-09-17T12:28:12.184Z,94095.30
2018-09-17T12:30:40.934Z,94098.20
2018-09-17T12:33:10.292Z,94093.53
2018-09-17T12:35:40.389Z,94091.55
2018-09-17T12:38:10.419Z,94086.22
2018-09-17T12:40:38.989Z,94090.27
2018-09-17T12:43:07.929Z,94080.72
2018-09-17T12:45:36.711Z,94085.80
2018-09-17T12:48:05.905Z,94080.27
2018-09-17T12:50:34.630Z,94077.69
2018-09-17T12:53:03.554Z,94078.08
2018-09-17T12:55:32.648Z,94073.53
2018-09-17T12:58:01.320Z,94071.76
2018-09-17T13:00:30.378Z,94066.09
2018-09-17T13:02:58.996Z,94064.29
2018-09-17T13:05:28.740Z,94063.78
2018-09-17T13:07:57.526Z,94066.67
2018-09-17T13:10:26.306Z,94061.70
2018-09-17T13:12:55.045Z,94056.58
2018-09-17T13:15:23.583Z,94056.94
2018-09-17T13:17:52.143Z,94052.61
2018-09-17T13:20:20.975Z,94054.61
2018-09-17T13:22:49.600Z,94047.20
2018-09-17T13:25:18.185Z,94045.81
2018-09-17T13:27:47.161Z,94045.51
2018-09-17T13:30:17.107Z,94045.02
2018-09-17T13:32:45.681Z,94038.44
2018-09-17T13:35:14.400Z,94044.98
2018-09-17T13:37:42.899Z,94040.30
2018-09-17T13:40:11.684Z,94038.19
2018-09-17T13:42:40.208Z,94042.49
2018-09-17T13:45:09.463Z,94034.02
2018-09-17T13:47:38.771Z,94023.59
2018-09-17T13:50:07.624Z,94022.54
2018-09-17T13:52:36.283Z,94022.49
2018-09-17T13:55:05.140Z,94014.88
2018-09-17T13:57:33.833Z,94021.34
2018-09-17T14:00:02.981Z,94014.78
2018-09-17T14:02:31.796Z,94013.89
2018-09-17T14:05:00.443Z,94006.90
2018-09-17T14:07:29.116Z,94009.22
2018-09-17T14:09:57.919Z,94006.92
2018-09-17T14:12:27.126Z,94004.71
2018-09-17T14:14:56.232Z,94005.30
2018-09-17T14:17:25.348Z,93998.67
2018-09-17T14:19:53.970Z,93996.25
2018-09-17T14:22:22.320Z,93998.73
2018-09-17T14:24:50.627Z,93998.05
2018-09-17T14:27:19.078Z,93997.27
2018-09-17T14:29:47.814Z,94000.06
2018-09-17T14:33:23.118Z,93996.45
2018-09-17T14:35:51.433Z,93993.07
2018-09-17T14:38:19.784Z,93995.59
2018-09-17T14:40:48.268Z,93997.78
2018-09-17T14:43:17.208Z,93988.97
2018-09-17T14:45:45.465Z,93989.54
2018-09-17T14:48:13.863Z,93989.71
2018-09-17T14:50:42.114Z,93985.29
2018-09-17T14:53:10.431Z,93989.42
2018-09-17T14:55:38.513Z,93984.91
2018-09-17T14:58:06.839Z,93988.39
2018-09-17T15:00:35.301Z,93981.82
2018-09-17T15:03:03.421Z,93985.73
2018-09-17T15:05:31.866Z,93993.55
2018-09-17T15:08:00.310Z,93991.52
2018-09-17T15:10:28.851Z,93986.57
2018-09-17T15:12:57.329Z,93989.09
2018-09-17T15:15:25.569Z,93984.26
2018-09-17T15:17:53.809Z,93986.41
2018-09-17T15:20:22.273Z,93987.08
2018-09-17T15:22:50.366Z,93984.75
2018-09-17T15:25:18.553Z,93989.09
2018-09-17T15:27:47.068Z,93981.61
2018-09-17T15:30:15.310Z,93983.88
2018-09-17T15:32:43.760Z,93982.70
2018-09-17T15:35:12.110Z,93984.65
2018-09-17T15:37:40.298Z,93986.44
2018-09-17T15:40:08.917Z,93991.73
2018-09-17T15:42:37.110Z,93994.83
2018-09-17T15:45:05.369Z,93989.14
2018-09-17T15:47:33.522Z,93990.24
2018-09-17T15:50:01.970Z,94000.44
2018-09-17T15:52:30.101Z,93996.52
2018-09-17T15:54:58.329Z,93990.39
2018-09-17T15:57:26.807Z,93989.03
2018-09-17T15:59:55.086Z,93995.23
2018-09-17T16:02:23.498Z,93995.76
2018-09-17T16:04:51.831Z,93998.09
2018-09-17T16:07:20.066Z,93998.03
2018-09-17T16:09:48.346Z,93995.41
2018-09-17T16:12:16.611Z,93992.63
2018-09-17T16:14:44.671Z,93994.49
2018-09-17T16:17:12.820Z,93990.25
2018-09-17T16:19:41.168Z,93992.69
2018-09-17T16:22:09.306Z,93987.75
2018-09-17T16:24:38.064Z,93982.47
2018-09-17T16:27:06.831Z,93980.09
2018-09-17T16:29:35.137Z,93976.36
2018-09-17T16:32:03.441Z,93982.06
2018-09-17T16:34:31.542Z,93986.03
2018-09-17T16:36:59.756Z,93981.59
2018-09-17T16:39:28.053Z,93977.78
2018-09-17T16:41:56.304Z,93976.83
2018-09-17T16:44:24.694Z,93973.90
2018-09-17T16:46:53.202Z,93979.11
2018-09-17T16:49:21.550Z,93979.47
2018-09-17T16:51:50.039Z,93977.81
2018-09-17T16:54:18.316Z,93979.50
2018-09-17T16:56:46.561Z,93981.72
2018-09-17T16:59:15.065Z,93983.81
2018-09-17T17:01:43.274Z,93983.26
2018-09-17T17:04:11.541Z,93987.22
2018-09-17T17:06:40.760Z,93996.50
2018-09-17T17:09:10.224Z,93991.41
2018-09-17T17:11:38.507Z,93996.67
2018-09-17T17:14:06.675Z,94000.77
2018-09-17T17:16:34.959Z,94003.20
2018-09-17T17:19:03.637Z,94004.72
2018-09-17T17:21:32.443Z,94005.29
2018-09-17T17:24:00.999Z,94007.88
2018-09-17T17:26:29.268Z,94002.92
2018-09-17T17:28:57.899Z,94000.20
2018-09-17T17:31:26.214Z,94006.31
2018-09-17T17:33:54.363Z,94003.59
2018-09-17T17:36:23.194Z,94007.17
2018-09-17T17:38:51.625Z,94008.06
2018-09-17T17:41:19.968Z,94008.91
2018-09-17T17:43:48.335Z,94010.98
2018-09-17T17:46:16.868Z,94012.06
2018-09-17T17:48:45.068Z,94020.41
2018-09-17T17:51:13.374Z,94022.88
2018-09-17T17:53:42.425Z,94024.16
2018-09-17T17:56:10.713Z,94026.23
2018-09-17T17:58:39.162Z,94024.81
2018-09-17T18:01:07.850Z,94029.87
2018-09-17T18:03:36.304Z,94033.91
2018-09-17T18:06:04.605Z,94034.51
2018-09-17T18:08:32.831Z,94035.59
2018-09-17T18:11:01.159Z,94039.91
2018-09-17T18:13:29.650Z,94041.70
2018-09-17T18:15:58.206Z,94043.36
2018-09-17T18:18:26.732Z,94035.86
2018-09-17T18:20:55.609Z,94041.12
2018-09-17T18:23:24.194Z,94049.31
2018-09-17T18:25:52.577Z,94045.36
2018-09-17T18:28:20.962Z,94044.77
2018-09-17T18:30:49.405Z,94047.37
2018-09-17T18:33:17.878Z,94042.05
2018-09-17T18:35:46.236Z,94044.94
2018-09-17T18:38:14.556Z,94047.52
2018-09-17T18:40:42.757Z,94045.50
2018-09-17T18:43:11.104Z,94048.69
2018-09-17T18:45:39.421Z,94050.61
2018-09-17T18:48:07.574Z,94052.55
2018-09-17T18:50:35.791Z,94051.95
2018-09-17T18:53:04.019Z,94052.21
2018-09-17T18:55:32.355Z,94054.47
2018-09-17T18:58:01.042Z,94058.89
2018-09-17T19:00:29.289Z,94061.70
2018-09-17T19:02:57.441Z,94056.13
2018-09-17T19:05:25.624Z,94056.81
2018-09-17T19:07:53.948Z,94058.17
2018-09-17T19:10:22.367Z,94052.80
2018-09-17T19:12:50.679Z,94055.28
2018-09-17T19:15:24.420Z,94059.59
2018-09-17T19:17:52.631Z,94069.16
2018-09-17T19:20:21.479Z,94065.94
2018-09-17T19:22:55.238Z,94075.59
2018-09-17T19:25:23.392Z,94073.79
2018-09-17T19:27:57.279Z,94076.52
2018-09-17T19:30:25.917Z,94073.99
2018-09-17T19:32:54.681Z,94074.94
2018-09-17T19:35:23.050Z,94077.91
2018-09-17T19:37:56.739Z,94075.59
2018-09-17T20:17:32.289Z,94103.78
2018-09-17T20:20:00.498Z,94097.61
2018-09-17T20:22:28.688Z,94101.37
2018-09-17T20:24:56.736Z,94101.50
2018-09-17T20:27:24.829Z,94103.64
2018-09-17T20:29:53.120Z,94104.47
2018-09-17T20:32:21.268Z,94101.91
2018-09-17T20:34:49.561Z,94105.94
2018-09-17T20:37:17.882Z,94109.96
2018-09-17T20:39:46.362Z,94116.85
2018-09-17T20:42:14.658Z,94113.36
2018-09-17T20:44:42.897Z,94112.56
2018-09-17T20:47:11.229Z,94110.77
2018-09-17T20:49:39.684Z,94109.47
2018-09-17T20:52:08.019Z,94111.98
2018-09-17T20:54:36.303Z,94111.60
2018-09-17T20:57:04.451Z,94112.56
2018-09-17T20:59:32.742Z,94114.55
2018-09-17T21:31:18.397Z,94133.88
2018-09-17T21:33:46.599Z,94137.52
2018-09-17T21:36:14.574Z,94138.91
2018-09-17T21:38:42.647Z,94133.40
2018-09-17T21:41:10.826Z,94135.52
2018-09-17T21:43:38.895Z,94131.16
2018-09-17T21:46:07.267Z,94127.14
2018-09-17T21:48:35.315Z,94127.28
2018-09-17T21:51:03.477Z,94131.87
2018-09-17T21:53:31.640Z,94132.10
2018-09-17T21:55:59.783Z,94129.11
2018-09-17T21:58:28.042Z,94131.19
2018-09-17T22:01:02.356Z,94132.23
2018-09-17T22:03:32.152Z,94130.45
2018-09-17T22:06:00.319Z,94134.13
2018-09-17T22:08:28.877Z,94130.68
2018-09-17T22:10:57.174Z,94130.30
2018-09-17T22:13:25.358Z,94136.73
2018-09-17T22:15:53.468Z,94136.73
2018-09-17T22:18:21.522Z,94132.23
2018-09-17T22:20:49.690Z,94128.57
2018-09-17T22:23:17.917Z,94126.08
2018-09-17T22:25:46.112Z,94131.47
2018-09-17T22:28:14.224Z,94129.78
2018-09-17T22:30:42.402Z,94125.35
2018-09-17T22:33:10.673Z,94128.22
2018-09-17T22:35:39.148Z,94122.16
2018-09-17T22:38:07.461Z,94119.49
2018-09-17T22:40:35.666Z,94124.34
2018-09-17T22:43:04.101Z,94122.30
2018-09-17T22:45:32.268Z,94121.89
2018-09-17T22:48:00.369Z,94119.05
2018-09-17T22:50:28.548Z,94119.81
2018-09-17T22:52:56.656Z,94126.00
2018-09-17T22:55:24.747Z,94124.37
2018-09-17T22:57:53.039Z,94121.31
2018-09-17T23:00:21.309Z,94126.06
2018-09-17T23:02:49.512Z,94121.83
2018-09-17T23:05:17.805Z,94120.52
2018-09-17T23:07:45.973Z,94119.72
2018-09-17T23:10:14.257Z,94119.53
2018-09-17T23:12:42.595Z,94124.39
2018-09-17T23:15:10.791Z,94119.67
2018-09-17T23:17:38.900Z,94126.92
2018-09-17T23:20:07.226Z,94129.84
2018-09-17T23:22:35.268Z,94129.94
2018-09-17T23:25:03.491Z,94127.64
2018-09-17T23:27:31.586Z,94125.43
2018-09-17T23:29:59.697Z,94130.09
2018-09-17T23:32:27.896Z,94130.66
2018-09-17T23:34:56.018Z,94133.45
2018-09-17T23:37:24.197Z,94134.09
2018-09-17T23:39:52.526Z,94136.28
2018-09-17T23:42:20.681Z,94129.28
2018-09-17T23:44:48.888Z,94127.90
2018-09-17T23:47:17.024Z,94126.87
2018-09-17T23:49:45.366Z,94128.09
2018-09-17T23:52:13.438Z,94134.73
2018-09-17T23:54:41.591Z,94127.33
2018-09-17T23:57:09.838Z,94121.73
2018-09-17T23:59:37.911Z,94125.85
